Meteo Giornale » Osservazioni meteo Kazakhstan » Kostanay
ore: 06:30 - Osservazioni Meteo Kostanay
Lat. 53° 12' N Lon. 63° 33' E Alt. 182 metri s.l.m.
6 °C
Sereno
Temp. 24 Ore
4 °C
15 °C
Ovest
18 Km/h
Dew point 3 °C
Umidità 81 %
Visibilità 10 Km
Il sole sorge alle ore 05:55
Il sole tramonta alle ore 19:36
| Data e Ora | Cielo e Fenomeni | T °C | DP °C | Um. % | Pres. hPa | Vis. km | Vento km/h | |
|---|---|---|---|---|---|---|---|---|
| Oggi h: 06:30 | Sereno | 6 | 3 | 81 | 1018 | 10 | O 18 | |
| Oggi h: 06:00 | Sereno | 5 | 3 | 86 | 1018 | 10 | O/NO 14.4 | |
| Oggi h: 05:30 | Sereno | 4 | 2 | 86 | 1018 | 10 | O/NO 14.4 | |
| Oggi h: 05:00 | Sereno | 5 | 2 | 80 | 1018 | 10 | O/NO 18 | |
| Oggi h: 04:30 | Sereno | 6 | 2 | 75 | 1018 | 10 | O/NO 18 | |
| Oggi h: 04:00 | Sereno | 6 | 2 | 75 | 1018 | 10 | O/NO 18 | |
| Oggi h: 03:30 | Sereno | 6 | 2 | 75 | 1018 | 10 | O/NO 14.4 | |
| Oggi h: 03:00 | Sereno | 7 | 2 | 70 | 1018 | 10 | NO 14.4 | |
| Oggi h: 02:00 | Sereno | 8 | 3 | 70 | 1017 | 10 | NO 10.8 | |
| Oggi h: 01:00 | Sereno | 9 | 3 | 66 | 1017 | 10 | NO 21.6 | |
| Oggi h: 00:00 | Sereno | 7 | 3 | 75 | 1017 | 10 | O/NO 10.8 | |
| Ieri h: 23:00 | Sereno | 7 | 3 | 75 | 1017 | 10 | N 7.2 | |
| Ieri h: 22:30 | Sereno | 8 | 4 | 75 | 1017 | 10 | N 7.2 | |
| Ieri h: 22:00 | Sereno | 7 | 3 | 75 | 1017 | 10 | N 7.2 | |
| Ieri h: 21:30 | Sereno | 7 | 2 | 70 | 1017 | 10 | N 3.6 | |
| Ieri h: 21:00 | Sereno | 7 | 2 | 70 | 1017 | 10 | N 3.6 | |
| Ieri h: 20:30 | Sereno | 7 | 2 | 70 | 1017 | 10 | N 3.6 | |
| Ieri h: 20:00 | Sereno | 10 | 1 | 53 | 1017 | 10 | N 7.2 | |
| Ieri h: 19:30 | Sereno | 12 | 2 | 50 | 1017 | 10 | O 10.8 | |
| Ieri h: 19:00 | Sereno | 13 | 1 | 43 | 1017 | 10 | O 14.4 | |
| Ieri h: 18:30 | Sereno | 14 | 0 | 38 | 1017 | 10 | O/NO 18 | |
| Ieri h: 18:00 | Sereno | 14 | 0 | 38 | 1017 | 10 | O 21.6 | |
| Ieri h: 17:30 | Sereno | 15 | 0 | 35 | 1017 | 10 | O/NO 21.6 | |
| Ieri h: 17:00 | Sereno | 15 | 0 | 35 | 1017 | 10 | O 21.6 | |
| Ieri h: 16:35 | Sereno | 14 | 0 | 38 | 1017 | 10 | O 21.6 | |
| Ieri h: 16:30 | Sereno | 14 | -1 | 35 | 1017 | 10 | O/NO 21.6 | |
| Ieri h: 16:00 | Sereno | 14 | 0 | 38 | 1017 | 10 | O 21.6 | |
| Ieri h: 15:30 | Sereno | 14 | 0 | 38 | 1017 | 10 | O 25.2 | |
| Ieri h: 15:00 | Sereno | 13 | 0 | 40 | 1018 | 10 | O 25.2 | |
| Ieri h: 14:30 | Sereno | 14 | 0 | 38 | 1018 | 10 | O 28.8 | |
| Ieri h: 14:00 | Sereno | 14 | 0 | 38 | 1018 | 10 | O/NO 28.8 | |
| Ieri h: 13:30 | Sereno | 13 | 0 | 40 | 1018 | 10 | O/NO 28.8 | |
| Ieri h: 13:22 | Sereno | 13 | 0 | 40 | 1018 | 10 | O/NO 28.8 | |
| Ieri h: 13:00 | Molto Nuvoloso | 13 | 0 | 40 | 1018 | 10 | O 28.8 | |
| Ieri h: 12:30 | Molto Nuvoloso | 13 | 2 | 47 | 1018 | 10 | O 25.2 | |
| Ieri h: 12:00 | Molto Nuvoloso | 13 | 2 | 47 | 1018 | 10 | O 25.2 | |
| Ieri h: 11:30 | Molto Nuvoloso | 14 | 3 | 47 | 1018 | 10 | O/NO 21.6 | |
| Ieri h: 11:00 | Nuvoloso | 13 | 3 | 50 | 1019 | 10 | O 25.2 | |
| Ieri h: 10:30 | Nuvoloso | 13 | 4 | 54 | 1019 | 10 | O/NO 21.6 | |
| Ieri h: 10:00 | Sereno | 12 | 4 | 57 | 1019 | 10 | O/NO 18 | |
| Ieri h: 09:30 | Sereno | 11 | 5 | 66 | 1019 | 10 | O/NO 18 | |
| Ieri h: 09:00 | Sereno | 10 | 5 | 71 | 1019 | 10 | NO 14.4 | |
| Ieri h: 08:30 | Sereno | 8 | 5 | 81 | 1019 | 10 | O/NO 14.4 | |
| Ieri h: 08:00 | Sereno | 7 | 5 | 87 | 1019 | 10 | O/NO 18 | |



